createdAt,value
2023-01-09T00:00:21.016Z,92.5
2023-01-09T00:01:20.808Z,92.4
2023-01-09T00:02:21.054Z,92.4
2023-01-09T00:03:20.800Z,92.4
2023-01-09T00:04:20.800Z,92.5
2023-01-09T00:05:20.834Z,92.5
2023-01-09T00:06:20.824Z,92.5
2023-01-09T00:07:20.834Z,92.5
2023-01-09T00:08:20.844Z,92.7
2023-01-09T00:09:20.855Z,92.6
2023-01-09T00:10:20.920Z,92.6
2023-01-09T00:11:20.902Z,92.6
2023-01-09T00:12:20.909Z,92.6
2023-01-09T00:13:20.916Z,92.8
2023-01-09T00:14:20.955Z,92.8
2023-01-09T00:15:20.961Z,92.9
2023-01-09T00:16:21.163Z,92.8
2023-01-09T00:17:20.943Z,92.8
2023-01-09T00:18:20.965Z,92.8
2023-01-09T00:19:21.003Z,92.7
2023-01-09T00:20:21.013Z,92.8
2023-01-09T00:21:20.996Z,93.1
2023-01-09T00:22:21.001Z,92.8
2023-01-09T00:23:21.042Z,93.4
2023-01-09T00:24:21.030Z,92.9
2023-01-09T00:25:21.050Z,92.8
2023-01-09T00:26:21.064Z,92.7
2023-01-09T00:27:21.087Z,92.7
2023-01-09T00:28:21.074Z,92.8
2023-01-09T00:29:21.093Z,92.9
2023-01-09T00:30:21.115Z,93.0
2023-01-09T00:31:21.119Z,93.0
2023-01-09T00:32:21.161Z,92.9
2023-01-09T00:33:21.133Z,93.1
2023-01-09T00:34:21.146Z,93.1
2023-01-09T00:35:21.192Z,93.0
2023-01-09T00:36:21.199Z,93.1
2023-01-09T00:37:21.234Z,93.1
2023-01-09T00:38:21.214Z,93.0
2023-01-09T00:39:21.226Z,93.1
2023-01-09T00:40:21.225Z,93.2
2023-01-09T00:41:21.238Z,93.3
2023-01-09T00:42:21.256Z,93.2
2023-01-09T00:43:21.256Z,93.4
2023-01-09T00:44:21.276Z,93.1
2023-01-09T00:45:21.316Z,93.0
2023-01-09T00:46:21.492Z,93.0
2023-01-09T00:47:21.302Z,93.1
2023-01-09T00:48:21.311Z,93.2
2023-01-09T00:49:21.322Z,93.3
2023-01-09T00:50:21.350Z,93.5
2023-01-09T00:51:21.375Z,93.6
2023-01-09T00:52:21.371Z,93.8
2023-01-09T00:53:21.384Z,93.9
2023-01-09T00:54:21.390Z,93.9
2023-01-09T00:55:21.432Z,93.9
2023-01-09T00:56:21.438Z,93.8
2023-01-09T00:57:21.442Z,93.9
2023-01-09T00:58:21.467Z,93.9
2023-01-09T00:59:21.488Z,94.0
2023-01-09T01:00:21.486Z,94.0
2023-01-09T01:01:21.860Z,94.1
2023-01-09T01:02:22.064Z,94.2
2023-01-09T01:03:21.537Z,94.2
2023-01-09T01:04:21.543Z,94.2
2023-01-09T01:05:21.562Z,94.2
2023-01-09T01:06:21.560Z,94.2
2023-01-09T01:07:21.564Z,94.1
2023-01-09T01:08:21.569Z,94.0
2023-01-09T01:09:21.579Z,93.8
2023-01-09T01:10:21.589Z,93.7
2023-01-09T01:11:21.603Z,93.6
2023-01-09T01:12:21.623Z,93.4
2023-01-09T01:13:21.624Z,93.3
2023-01-09T01:14:21.629Z,93.2
2023-01-09T01:15:21.661Z,93.1
2023-01-09T01:16:21.757Z,93.1
2023-01-09T01:17:21.683Z,93.1
2023-01-09T01:18:21.682Z,93.2
2023-01-09T01:19:21.697Z,93.2
2023-01-09T01:20:21.716Z,93.2
2023-01-09T01:21:21.726Z,93.1
2023-01-09T01:22:21.720Z,93.1
2023-01-09T01:23:21.760Z,93.1
2023-01-09T01:24:21.750Z,93.1
2023-01-09T01:25:21.756Z,93.0
2023-01-09T01:26:21.817Z,93.1
2023-01-09T01:27:21.809Z,93.0
2023-01-09T01:28:21.794Z,93.2
2023-01-09T01:29:21.827Z,93.3
2023-01-09T01:30:21.815Z,93.4
2023-01-09T01:31:21.850Z,93.5
2023-01-09T01:32:21.847Z,93.6
2023-01-09T01:33:21.836Z,93.7
2023-01-09T01:34:21.867Z,93.8
2023-01-09T01:35:21.874Z,93.8
2023-01-09T01:36:21.873Z,93.7
2023-01-09T01:37:21.928Z,93.6
2023-01-09T01:38:21.915Z,93.5
2023-01-09T01:39:21.924Z,93.5
2023-01-09T01:40:21.921Z,93.5
2023-01-09T01:41:21.942Z,93.6
2023-01-09T01:42:22.017Z,93.7
2023-01-09T01:43:21.969Z,93.8
2023-01-09T02:01:22.882Z,93.2
2023-01-09T02:02:22.844Z,93.3
2023-01-09T02:03:22.243Z,93.4
2023-01-09T02:04:22.254Z,93.5
2023-01-09T02:05:22.248Z,93.7
2023-01-09T02:06:22.259Z,93.8
2023-01-09T02:07:22.259Z,93.9
2023-01-09T02:08:22.289Z,94.0
2023-01-09T02:09:22.283Z,94.1
2023-01-09T02:10:22.308Z,94.1
2023-01-09T02:11:22.318Z,94.1
2023-01-09T02:12:22.353Z,94.2
2023-01-09T02:13:22.353Z,94.2
2023-01-09T02:14:22.375Z,94.1
2023-01-09T02:15:22.395Z,94.0
2023-01-09T02:16:22.598Z,94.0
2023-01-09T02:17:22.419Z,94.0
2023-01-09T02:18:22.439Z,93.9
2023-01-09T02:19:22.453Z,93.9
2023-01-09T02:20:22.464Z,93.9
2023-01-09T02:21:22.476Z,93.9
2023-01-09T02:22:22.472Z,94.0
2023-01-09T02:23:22.492Z,94.1
2023-01-09T02:24:22.498Z,94.2
2023-01-09T02:25:22.529Z,94.1
2023-01-09T02:26:22.502Z,94.0
2023-01-09T02:27:22.531Z,94.0
2023-01-09T02:28:22.543Z,94.1
2023-01-09T02:29:22.568Z,94.1
2023-01-09T02:30:22.567Z,93.9
2023-01-09T02:31:22.762Z,94.0
2023-01-09T02:32:22.594Z,94.0
2023-01-09T02:33:22.611Z,94.0
2023-01-09T02:34:22.754Z,94.0
2023-01-09T02:35:22.637Z,93.9
2023-01-09T02:36:22.646Z,93.9
2023-01-09T02:37:22.673Z,93.8
2023-01-09T02:38:22.677Z,93.7
2023-01-09T02:39:22.680Z,93.7
2023-01-09T02:40:22.682Z,93.7
2023-01-09T02:41:22.697Z,93.7
2023-01-09T02:42:22.742Z,93.7
2023-01-09T02:43:22.728Z,93.8
2023-01-09T02:44:22.732Z,93.9
2023-01-09T02:45:22.730Z,93.8
2023-01-09T02:46:22.761Z,93.9
2023-01-09T02:47:22.751Z,93.9
2023-01-09T02:48:22.755Z,93.8
2023-01-09T02:49:22.750Z,93.9
2023-01-09T02:50:22.791Z,93.9
2023-01-09T02:51:22.772Z,93.9
2023-01-09T02:52:22.811Z,93.9
2023-01-09T02:53:23.313Z,93.6
2023-01-09T02:54:23.003Z,93.3
2023-01-09T02:55:23.121Z,93.7
2023-01-09T02:56:23.623Z,93.7
2023-01-09T02:57:23.070Z,93.4
2023-01-09T02:58:23.441Z,93.5
2023-01-09T02:59:23.490Z,93.6
2023-01-09T03:00:23.291Z,93.5
2023-01-09T03:01:24.315Z,93.5
2023-01-09T03:02:23.878Z,93.6
2023-01-09T03:03:23.781Z,93.4
2023-01-09T03:04:23.892Z,93.2
2023-01-09T03:05:23.079Z,93.3
2023-01-09T03:06:23.078Z,93.4
2023-01-09T03:07:23.542Z,93.4
2023-01-09T03:08:23.109Z,93.0
2023-01-09T03:09:23.515Z,92.8
2023-01-09T03:10:23.152Z,92.8
2023-01-09T03:11:23.165Z,93.0
2023-01-09T03:12:23.254Z,92.9
2023-01-09T03:13:23.585Z,93.0
2023-01-09T03:14:23.284Z,93.0
2023-01-09T03:15:23.292Z,92.9
2023-01-09T03:16:23.309Z,92.8
2023-01-09T03:17:23.281Z,92.8
2023-01-09T03:18:23.317Z,92.9
2023-01-09T03:19:23.310Z,92.8
2023-01-09T03:20:23.318Z,92.9
2023-01-09T03:21:23.738Z,92.9
2023-01-09T03:22:23.309Z,92.8
2023-01-09T03:23:23.341Z,92.6
2023-01-09T03:24:23.312Z,92.6
2023-01-09T03:25:23.356Z,92.6
2023-01-09T03:26:23.799Z,92.4
2023-01-09T03:27:23.264Z,92.4
2023-01-09T03:28:23.261Z,92.3
2023-01-09T03:29:23.272Z,92.3
2023-01-09T03:30:23.299Z,92.3
2023-01-09T03:31:23.405Z,92.0
2023-01-09T03:32:23.317Z,92.3
2023-01-09T03:33:23.334Z,92.0
2023-01-09T03:34:23.341Z,92.2
2023-01-09T03:35:23.349Z,92.3
2023-01-09T03:36:23.365Z,92.4
2023-01-09T03:37:23.377Z,92.4
2023-01-09T03:38:23.386Z,92.3
2023-01-09T03:39:23.402Z,91.7
2023-01-09T03:40:23.412Z,92.0
2023-01-09T03:41:23.471Z,91.9
2023-01-09T03:42:23.429Z,91.6
2023-01-09T03:43:23.441Z,90.9
2023-01-09T03:44:23.456Z,91.4
2023-01-09T03:45:23.509Z,91.6
2023-01-09T03:46:23.477Z,91.3
2023-01-09T03:47:23.529Z,91.6
2023-01-09T03:48:23.506Z,91.5
2023-01-09T03:49:23.520Z,91.2
2023-01-09T03:50:23.522Z,91.3
2023-01-09T03:51:23.526Z,91.2
2023-01-09T03:52:23.547Z,91.4
2023-01-09T03:53:23.558Z,91.5
2023-01-09T03:54:23.556Z,91.2
2023-01-09T03:55:23.579Z,91.1
2023-01-09T03:56:23.608Z,91.2
2023-01-09T03:57:23.615Z,91.1
2023-01-09T03:58:23.615Z,90.9
2023-01-09T03:59:23.629Z,90.7
2023-01-09T04:00:23.809Z,90.3
2023-01-09T04:01:24.231Z,90.6
2023-01-09T04:02:23.698Z,90.4
2023-01-09T04:03:23.677Z,90.6
2023-01-09T04:04:23.709Z,90.5
2023-01-09T04:05:23.722Z,90.6
2023-01-09T04:06:23.716Z,90.2
2023-01-09T04:07:23.747Z,90.2
2023-01-09T04:08:23.803Z,90.1
2023-01-09T04:09:23.778Z,90.2
2023-01-09T04:10:23.780Z,89.9
2023-01-09T04:11:23.799Z,90.0
2023-01-09T04:12:23.832Z,89.7
2023-01-09T04:13:23.873Z,89.7
2023-01-09T04:14:23.834Z,89.3
2023-01-09T04:15:23.873Z,89.0
2023-01-09T04:16:24.075Z,89.1
2023-01-09T04:17:23.904Z,88.9
2023-01-09T04:18:23.922Z,89.4
2023-01-09T04:19:23.947Z,89.4
2023-01-09T04:20:23.950Z,89.7
2023-01-09T04:21:23.967Z,89.7
2023-01-09T04:22:23.991Z,89.7
2023-01-09T04:23:24.027Z,89.5
2023-01-09T04:24:24.028Z,89.6
2023-01-09T04:25:24.059Z,89.7
2023-01-09T04:26:24.063Z,89.7
2023-01-09T04:27:24.100Z,89.4
2023-01-09T04:28:24.091Z,88.7
2023-01-09T04:29:24.115Z,88.9
2023-01-09T04:30:24.125Z,88.6
2023-01-09T04:31:24.387Z,88.8
2023-01-09T04:32:24.253Z,88.2
2023-01-09T04:33:24.191Z,88.3
2023-01-09T04:34:24.232Z,88.5
2023-01-09T04:35:24.223Z,88.8
2023-01-09T04:36:24.259Z,88.8
2023-01-09T04:37:24.287Z,88.7
2023-01-09T04:38:24.277Z,88.6
2023-01-09T04:39:24.278Z,88.3
2023-01-09T04:40:24.328Z,88.3
2023-01-09T04:41:24.317Z,88.0
2023-01-09T04:42:24.329Z,88.2
2023-01-09T04:43:24.324Z,88.2
2023-01-09T04:44:24.374Z,88.4
2023-01-09T04:45:24.393Z,88.5
2023-01-09T04:46:24.399Z,88.4
2023-01-09T04:47:24.397Z,88.3
2023-01-09T04:48:24.447Z,88.4
2023-01-09T04:49:24.431Z,88.3
2023-01-09T04:50:24.469Z,88.2
2023-01-09T04:51:24.415Z,88.1
2023-01-09T04:52:24.430Z,88.1
2023-01-09T04:53:24.447Z,88.0
2023-01-09T04:54:24.454Z,88.1
2023-01-09T04:55:24.475Z,87.9
2023-01-09T04:56:24.493Z,87.9
2023-01-09T04:57:24.495Z,88.0
2023-01-09T04:58:24.465Z,88.1
2023-01-09T04:59:24.506Z,88.1
2023-01-09T05:00:24.470Z,88.0
2023-01-09T05:01:24.872Z,88.1
2023-01-09T05:02:24.524Z,88.0
2023-01-09T05:03:24.523Z,88.1
2023-01-09T05:04:24.750Z,88.1
2023-01-09T05:05:24.509Z,88.2
2023-01-09T05:06:24.513Z,88.2
2023-01-09T05:07:24.520Z,88.3
2023-01-09T05:08:24.523Z,88.3
2023-01-09T05:09:24.531Z,88.4
2023-01-09T05:10:24.541Z,88.3
2023-01-09T05:11:24.543Z,88.2
2023-01-09T05:12:24.541Z,88.3
2023-01-09T05:13:24.547Z,88.5
2023-01-09T05:14:24.580Z,88.5
2023-01-09T05:15:24.578Z,88.5
2023-01-09T05:16:24.670Z,88.4
2023-01-09T05:17:24.593Z,88.4
2023-01-09T05:18:24.590Z,88.4
2023-01-09T05:19:24.610Z,88.4
2023-01-09T05:20:24.602Z,88.3
2023-01-09T05:21:24.667Z,88.4
2023-01-09T05:22:24.611Z,88.5
2023-01-09T05:23:24.605Z,88.5
2023-01-09T05:24:24.639Z,88.6
2023-01-09T05:25:24.624Z,88.5
2023-01-09T05:26:24.660Z,88.4
2023-01-09T05:27:24.636Z,88.4
2023-01-09T05:28:24.644Z,88.4
2023-01-09T05:29:24.649Z,88.4
2023-01-09T05:30:24.652Z,88.4
2023-01-09T05:31:24.864Z,88.5
2023-01-09T05:32:24.672Z,88.5
2023-01-09T05:33:24.717Z,88.6
2023-01-09T05:34:24.685Z,88.7
2023-01-09T05:35:24.699Z,88.7
2023-01-09T05:36:24.697Z,88.7
2023-01-09T05:37:24.722Z,88.7
2023-01-09T05:38:24.755Z,88.7
2023-01-09T05:39:24.726Z,88.7
2023-01-09T05:40:40.222Z,88.8
2023-01-09T05:41:24.746Z,88.8
2023-01-09T05:42:24.742Z,88.9
2023-01-09T05:43:24.742Z,88.9
2023-01-09T05:44:24.750Z,89.0
2023-01-09T05:45:24.955Z,88.9
2023-01-09T05:46:24.772Z,89.0
2023-01-09T05:47:24.773Z,89.0
2023-01-09T05:48:24.779Z,89.0
2023-01-09T05:49:24.793Z,88.9
2023-01-09T05:50:24.811Z,89.1
2023-01-09T05:51:24.808Z,89.2
2023-01-09T05:52:24.834Z,89.2
2023-01-09T05:53:24.826Z,89.2
2023-01-09T05:54:24.844Z,89.2
2023-01-09T05:55:24.848Z,89.2
2023-01-09T05:56:24.856Z,89.2
2023-01-09T05:57:24.862Z,89.2
2023-01-09T05:58:24.854Z,89.2
2023-01-09T05:59:24.859Z,89.3
2023-01-09T06:00:24.904Z,89.3
2023-01-09T06:01:25.119Z,89.3
2023-01-09T06:02:25.284Z,89.2
2023-01-09T06:03:24.905Z,89.2
2023-01-09T06:04:24.920Z,89.2
2023-01-09T06:05:24.911Z,89.2
2023-01-09T06:06:24.911Z,89.1
2023-01-09T06:07:24.924Z,89.1
2023-01-09T06:08:24.919Z,89.2
2023-01-09T06:09:24.930Z,89.1
2023-01-09T06:10:24.949Z,89.1
2023-01-09T06:11:24.980Z,89.1
2023-01-09T06:12:24.977Z,89.1
2023-01-09T06:13:24.963Z,89.1
2023-01-09T06:14:24.967Z,89.1
2023-01-09T06:15:24.964Z,89.1
2023-01-09T06:16:25.282Z,89.1
2023-01-09T06:17:24.968Z,89.1
2023-01-09T06:18:24.995Z,89.1
2023-01-09T06:19:25.002Z,89.1
2023-01-09T06:20:25.004Z,89.1
2023-01-09T06:21:25.053Z,89.0
2023-01-09T06:22:25.018Z,89.0
2023-01-09T06:23:25.013Z,89.0
2023-01-09T06:24:25.035Z,89.0
2023-01-09T06:25:25.043Z,89.0
2023-01-09T06:26:25.050Z,89.0
2023-01-09T06:27:25.038Z,89.0
2023-01-09T06:28:25.062Z,88.9
2023-01-09T06:29:25.064Z,88.9
2023-01-09T06:30:25.075Z,89.0
2023-01-09T06:31:25.322Z,89.0
2023-01-09T06:32:25.074Z,89.0
2023-01-09T06:33:25.098Z,88.9
2023-01-09T06:34:25.112Z,88.6
2023-01-09T06:35:25.099Z,88.9
2023-01-09T06:36:25.097Z,89.2
2023-01-09T06:37:25.108Z,89.5
2023-01-09T06:38:25.113Z,89.2
2023-01-09T06:39:25.125Z,89.2
2023-01-09T06:40:25.149Z,89.5
2023-01-09T06:41:25.171Z,89.5
2023-01-09T06:42:25.149Z,89.2
2023-01-09T06:43:25.146Z,89.4
2023-01-09T06:44:25.165Z,89.0
2023-01-09T06:45:25.166Z,89.1
2023-01-09T06:46:25.294Z,89.3
2023-01-09T06:47:25.196Z,89.5
2023-01-09T06:48:25.199Z,89.6
2023-01-09T06:49:25.205Z,89.6
2023-01-09T06:50:25.204Z,89.8
2023-01-09T06:51:25.215Z,89.8
2023-01-09T06:52:25.214Z,89.8
2023-01-09T06:53:25.226Z,89.9
2023-01-09T06:54:28.907Z,89.9
2023-01-09T06:55:25.236Z,90.2
2023-01-09T06:56:25.248Z,90.1
2023-01-09T06:57:25.258Z,90.1
2023-01-09T06:58:25.277Z,90.0
2023-01-09T06:59:25.268Z,90.0
2023-01-09T07:00:25.274Z,90.0
2023-01-09T07:01:25.545Z,90.0
2023-01-09T07:02:25.283Z,90.0
2023-01-09T07:03:25.280Z,90.0
2023-01-09T07:04:25.414Z,90.0
2023-01-09T07:05:25.296Z,90.0
2023-01-09T07:06:25.299Z,90.1
2023-01-09T07:07:25.335Z,90.1
2023-01-09T07:08:25.315Z,90.1
2023-01-09T07:09:25.318Z,90.2
2023-01-09T07:10:25.329Z,90.2
2023-01-09T07:11:25.335Z,90.1
2023-01-09T07:12:25.342Z,90.0
2023-01-09T07:13:25.339Z,90.2
2023-01-09T07:14:25.353Z,90.2
2023-01-09T07:15:25.361Z,90.2
2023-01-09T07:16:25.538Z,90.2
2023-01-09T07:17:25.371Z,90.2
2023-01-09T07:18:25.368Z,90.2
2023-01-09T07:19:25.381Z,90.2
2023-01-09T07:20:25.385Z,90.1
2023-01-09T07:21:25.412Z,90.1
2023-01-09T07:22:25.394Z,90.2
2023-01-09T07:23:25.413Z,90.1
2023-01-09T07:24:25.425Z,90.1
2023-01-09T07:25:25.427Z,90.1
2023-01-09T07:26:25.429Z,90.0
2023-01-09T07:27:25.441Z,90.1
2023-01-09T07:28:25.462Z,90.2
2023-01-09T07:29:25.471Z,90.1
2023-01-09T07:30:25.477Z,90.0
2023-01-09T07:31:25.683Z,90.1
2023-01-09T07:32:25.491Z,90.2
2023-01-09T07:33:25.508Z,90.2
2023-01-09T07:34:25.512Z,90.2
2023-01-09T07:35:25.512Z,90.2
2023-01-09T07:36:25.520Z,90.3
2023-01-09T07:37:25.529Z,90.1
2023-01-09T07:38:25.531Z,90.1
2023-01-09T07:39:25.541Z,90.1
2023-01-09T07:40:25.534Z,90.2
2023-01-09T07:41:25.556Z,90.1
2023-01-09T07:42:25.589Z,89.9
2023-01-09T07:43:25.559Z,89.9
2023-01-09T07:44:25.581Z,89.9
2023-01-09T07:45:25.594Z,89.8
2023-01-09T07:46:25.735Z,89.8
2023-01-09T07:47:25.600Z,89.8
2023-01-09T07:48:25.615Z,89.7
2023-01-09T07:49:27.124Z,89.6
2023-01-09T07:50:25.620Z,89.7
2023-01-09T07:51:25.615Z,89.7
2023-01-09T07:52:25.627Z,89.6
2023-01-09T07:53:25.635Z,89.6
2023-01-09T07:54:25.643Z,89.6
2023-01-09T07:55:25.655Z,89.4
2023-01-09T07:56:25.686Z,89.4
2023-01-09T07:57:25.658Z,89.4
2023-01-09T07:58:25.667Z,89.3
2023-01-09T07:59:25.659Z,89.2
2023-01-09T08:00:25.685Z,89.4
2023-01-09T08:01:25.929Z,89.4
2023-01-09T08:02:25.960Z,89.6
2023-01-09T08:03:25.714Z,89.0
2023-01-09T08:04:25.707Z,89.1
2023-01-09T08:05:25.708Z,89.2
2023-01-09T08:06:25.724Z,89.3
2023-01-09T08:07:25.756Z,89.4
2023-01-09T08:08:25.732Z,89.4
2023-01-09T08:09:25.746Z,89.4
2023-01-09T08:10:25.747Z,89.3
2023-01-09T08:11:25.767Z,89.2
2023-01-09T08:12:25.768Z,88.9
2023-01-09T08:13:25.767Z,88.8
2023-01-09T08:14:25.775Z,88.7
2023-01-09T08:15:25.786Z,88.7
2023-01-09T08:16:25.788Z,88.7
2023-01-09T08:17:26.777Z,88.7
2023-01-09T08:18:25.822Z,88.7
2023-01-09T08:19:26.011Z,88.7
2023-01-09T08:20:25.824Z,88.8
2023-01-09T08:21:25.813Z,88.9
2023-01-09T08:22:25.834Z,88.9
2023-01-09T08:23:25.835Z,89.1
2023-01-09T08:24:25.850Z,89.1
2023-01-09T08:25:25.865Z,89.2
2023-01-09T08:26:25.858Z,89.3
2023-01-09T08:27:25.880Z,89.4
2023-01-09T08:28:25.894Z,89.4
2023-01-09T08:29:25.882Z,89.4
2023-01-09T08:30:26.062Z,89.5
2023-01-09T08:31:26.211Z,89.7
2023-01-09T08:32:25.882Z,89.7
2023-01-09T08:33:25.911Z,89.9
2023-01-09T08:34:25.903Z,90.0
2023-01-09T08:35:25.917Z,90.1
2023-01-09T08:36:26.104Z,90.4
2023-01-09T08:37:25.918Z,90.3
2023-01-09T08:38:25.914Z,90.3
2023-01-09T08:39:25.924Z,90.2
2023-01-09T08:40:26.138Z,90.1
2023-01-09T08:41:25.945Z,89.9
2023-01-09T08:42:25.975Z,89.6
2023-01-09T08:43:25.989Z,89.4
2023-01-09T08:44:25.975Z,89.2
2023-01-09T08:45:26.007Z,89.0
2023-01-09T08:46:26.169Z,89.0
2023-01-09T08:47:26.007Z,88.7
2023-01-09T08:48:26.013Z,88.5
2023-01-09T08:49:25.999Z,88.7
2023-01-09T08:50:26.015Z,88.6
2023-01-09T08:51:26.022Z,88.7
2023-01-09T08:52:26.022Z,88.6
2023-01-09T08:53:26.040Z,88.5
2023-01-09T08:54:26.049Z,88.8
2023-01-09T08:55:26.063Z,89.2
2023-01-09T08:56:26.073Z,89.2
2023-01-09T08:57:26.067Z,88.8
2023-01-09T08:58:26.073Z,88.6
2023-01-09T08:59:26.111Z,88.4
2023-01-09T09:00:26.170Z,88.2
2023-01-09T09:01:26.294Z,88.0
2023-01-09T09:02:26.283Z,88.0
2023-01-09T09:03:26.116Z,88.1
2023-01-09T09:04:26.113Z,88.1
2023-01-09T09:05:26.147Z,88.3
2023-01-09T09:06:26.303Z,88.4
2023-01-09T09:07:26.154Z,88.6
2023-01-09T09:08:26.144Z,88.7
2023-01-09T09:09:26.155Z,88.7
2023-01-09T09:10:26.151Z,88.9
2023-01-09T09:11:26.153Z,88.9
2023-01-09T09:12:26.160Z,88.9
2023-01-09T09:13:26.172Z,89.1
2023-01-09T09:14:26.180Z,89.2
2023-01-09T09:15:26.185Z,89.3
2023-01-09T09:16:26.794Z,89.2
2023-01-09T09:17:26.189Z,89.4
2023-01-09T09:18:26.214Z,89.4
2023-01-09T09:19:26.217Z,89.5
2023-01-09T09:20:26.244Z,89.3
2023-01-09T09:21:26.210Z,89.3
2023-01-09T09:22:26.222Z,89.2
2023-01-09T09:23:26.245Z,89.0
2023-01-09T09:24:26.246Z,88.7
2023-01-09T09:25:26.250Z,88.7
2023-01-09T09:26:26.277Z,88.4
2023-01-09T09:27:26.291Z,88.2
2023-01-09T09:28:26.296Z,88.0
2023-01-09T09:29:26.281Z,87.9
2023-01-09T09:30:26.307Z,87.9
2023-01-09T09:31:26.533Z,87.9
2023-01-09T09:32:26.300Z,87.8
2023-01-09T09:33:26.286Z,87.8
2023-01-09T09:34:26.294Z,88.2
2023-01-09T09:35:26.304Z,88.5
2023-01-09T09:36:26.310Z,88.6
2023-01-09T09:37:26.312Z,88.8
2023-01-09T09:38:26.328Z,88.8
2023-01-09T09:39:26.339Z,89.0
2023-01-09T09:40:26.347Z,89.0
2023-01-09T09:41:26.357Z,89.0
2023-01-09T09:42:26.372Z,88.9
2023-01-09T09:43:26.356Z,89.0
2023-01-09T09:44:26.380Z,89.1
2023-01-09T09:45:26.377Z,89.1
2023-01-09T09:46:26.542Z,89.3
2023-01-09T09:47:26.381Z,89.6
2023-01-09T09:48:26.386Z,89.6
2023-01-09T09:49:26.403Z,89.0
2023-01-09T09:50:26.402Z,88.0
2023-01-09T09:51:26.401Z,87.6
2023-01-09T09:52:26.413Z,86.7
2023-01-09T09:53:26.459Z,86.9
2023-01-09T09:54:26.443Z,87.0
2023-01-09T09:55:26.447Z,87.1
2023-01-09T09:56:26.450Z,86.6
2023-01-09T09:57:26.459Z,85.7
2023-01-09T09:58:26.462Z,85.5
2023-01-09T09:59:27.255Z,85.6
2023-01-09T10:00:26.473Z,85.6
2023-01-09T10:01:26.488Z,85.4
2023-01-09T10:02:26.715Z,85.4
2023-01-09T10:03:34.958Z,85.2
2023-01-09T10:04:26.536Z,85.0
2023-01-09T10:05:26.522Z,84.9
2023-01-09T10:06:26.519Z,84.9
2023-01-09T10:07:26.514Z,84.8
2023-01-09T10:08:26.534Z,84.0
2023-01-09T10:09:26.555Z,84.2
2023-01-09T10:10:26.530Z,84.1
2023-01-09T10:11:26.549Z,83.3
2023-01-09T10:12:26.556Z,82.5
2023-01-09T10:13:26.563Z,82.6
2023-01-09T10:14:26.580Z,82.7
2023-01-09T10:15:26.576Z,82.3
2023-01-09T10:16:26.826Z,82.3
2023-01-09T10:17:26.590Z,82.3
2023-01-09T10:18:26.622Z,82.2
2023-01-09T10:19:26.598Z,82.2
2023-01-09T10:20:26.594Z,82.3
2023-01-09T10:21:26.617Z,82.1
2023-01-09T10:22:26.638Z,81.7
2023-01-09T10:23:26.733Z,82.0
2023-01-09T10:24:26.739Z,82.0
2023-01-09T10:25:26.669Z,81.4
2023-01-09T10:26:26.670Z,81.9
2023-01-09T10:27:27.059Z,81.9
2023-01-09T10:28:26.670Z,81.9
2023-01-09T10:29:26.685Z,81.5
2023-01-09T10:30:26.677Z,81.1
2023-01-09T10:31:26.768Z,81.0
2023-01-09T10:32:26.709Z,80.7
2023-01-09T10:33:26.712Z,80.6
2023-01-09T10:34:26.724Z,80.1
2023-01-09T10:35:47.848Z,80.2
2023-01-09T10:36:26.733Z,80.9
2023-01-09T10:37:26.738Z,81.2
2023-01-09T10:38:26.762Z,81.5
2023-01-09T10:39:26.762Z,81.7
2023-01-09T10:40:26.804Z,81.3
2023-01-09T10:41:26.802Z,81.5
2023-01-09T10:42:26.765Z,81.7
2023-01-09T10:43:26.772Z,81.6
2023-01-09T10:44:26.789Z,81.7
2023-01-09T10:45:26.797Z,81.6
2023-01-09T10:46:26.986Z,81.1
2023-01-09T10:47:26.810Z,80.9
2023-01-09T10:48:26.820Z,80.4
2023-01-09T10:49:26.836Z,79.4
2023-01-09T10:50:26.842Z,79.5
2023-01-09T10:51:26.832Z,79.6
2023-01-09T10:52:26.838Z,79.6
2023-01-09T10:53:26.873Z,79.2
2023-01-09T10:54:26.850Z,79.2
2023-01-09T10:55:26.862Z,79.2
2023-01-09T10:56:26.877Z,79.2
2023-01-09T10:57:26.881Z,79.4
2023-01-09T10:58:26.917Z,79.1
2023-01-09T10:59:26.916Z,79.1
2023-01-09T11:00:26.926Z,79.2
2023-01-09T11:01:26.989Z,79.5
2023-01-09T11:02:27.181Z,79.3
2023-01-09T11:03:27.090Z,79.3
2023-01-09T11:04:26.944Z,79.4
2023-01-09T11:05:29.163Z,79.4
2023-01-09T11:06:26.949Z,79.5
2023-01-09T11:07:26.989Z,79.5
2023-01-09T11:08:26.983Z,78.8
2023-01-09T11:09:26.989Z,79.2
2023-01-09T11:10:26.976Z,79.5
2023-01-09T11:11:26.976Z,79.4
2023-01-09T11:12:26.992Z,79.2
2023-01-09T11:13:27.084Z,79.3
2023-01-09T11:14:26.997Z,78.4
2023-01-09T11:15:27.004Z,78.8
2023-01-09T11:16:27.201Z,78.7
2023-01-09T11:17:27.037Z,78.7
2023-01-09T11:18:27.035Z,78.2
2023-01-09T11:19:27.048Z,78.2
2023-01-09T11:20:27.072Z,78.5
2023-01-09T11:21:27.108Z,78.4
2023-01-09T11:22:27.065Z,78.4
2023-01-09T11:23:27.086Z,78.5
2023-01-09T11:24:27.079Z,78.5
2023-01-09T11:25:27.087Z,77.9
2023-01-09T11:26:27.100Z,78.3
2023-01-09T11:27:27.142Z,78.1
2023-01-09T11:28:27.133Z,78.0
2023-01-09T11:29:27.386Z,78.0
2023-01-09T11:30:27.209Z,78.0
2023-01-09T11:31:27.245Z,78.2
2023-01-09T11:32:27.148Z,77.9
2023-01-09T11:33:27.180Z,77.9
2023-01-09T11:34:27.195Z,77.6
2023-01-09T11:35:27.253Z,77.6
2023-01-09T11:36:27.186Z,77.4
2023-01-09T11:37:27.183Z,77.0
2023-01-09T11:38:27.192Z,77.1
2023-01-09T11:39:27.210Z,76.5
2023-01-09T11:40:27.213Z,76.3
2023-01-09T11:41:27.227Z,76.0
2023-01-09T11:42:27.207Z,75.8
2023-01-09T11:43:27.209Z,76.0
2023-01-09T11:44:27.219Z,76.2
2023-01-09T11:45:27.234Z,76.2
2023-01-09T11:46:27.285Z,76.3
2023-01-09T11:47:27.234Z,76.5
2023-01-09T11:48:27.238Z,75.7
2023-01-09T11:49:27.243Z,75.9
2023-01-09T11:50:27.360Z,76.0
2023-01-09T11:51:27.319Z,76.1
2023-01-09T11:52:27.292Z,75.8
2023-01-09T11:53:27.279Z,75.9
2023-01-09T11:54:27.304Z,76.2
2023-01-09T11:55:43.272Z,76.5
2023-01-09T11:56:27.306Z,76.8
2023-01-09T11:57:27.341Z,77.0
2023-01-09T11:58:27.320Z,77.4
2023-01-09T11:59:27.343Z,77.6
2023-01-09T12:00:27.344Z,78.1
2023-01-09T12:01:27.378Z,78.4
2023-01-09T12:02:27.362Z,78.8
2023-01-09T12:03:27.531Z,79.2
2023-01-09T12:04:27.379Z,79.5
2023-01-09T12:05:27.379Z,79.5
2023-01-09T12:06:27.391Z,79.6
2023-01-09T12:07:27.404Z,79.9
2023-01-09T12:08:27.409Z,80.0
2023-01-09T12:09:27.471Z,80.2
2023-01-09T12:10:27.413Z,80.4
2023-01-09T12:11:27.433Z,80.4
2023-01-09T12:12:27.449Z,80.1
2023-01-09T12:13:27.448Z,79.1
2023-01-09T12:14:27.479Z,78.8
2023-01-09T12:15:27.470Z,78.6
2023-01-09T12:16:27.700Z,78.6
2023-01-09T12:17:27.472Z,78.6
2023-01-09T12:18:27.501Z,78.3
2023-01-09T12:19:27.515Z,77.5
2023-01-09T12:20:27.507Z,77.3
2023-01-09T12:21:27.512Z,77.0
2023-01-09T12:22:27.536Z,76.7
2023-01-09T12:23:27.528Z,76.2
2023-01-09T12:24:27.587Z,76.4
2023-01-09T12:25:27.559Z,76.4
2023-01-09T12:26:27.558Z,76.4
2023-01-09T12:27:27.580Z,76.2
2023-01-09T12:28:27.569Z,76.4
2023-01-09T12:29:27.568Z,76.4
2023-01-09T12:30:27.612Z,76.4
2023-01-09T12:31:27.794Z,76.5
2023-01-09T12:32:27.606Z,76.3
2023-01-09T12:33:27.590Z,76.3
2023-01-09T12:34:27.617Z,76.4
2023-01-09T12:35:27.625Z,76.4
2023-01-09T12:36:27.637Z,75.5
2023-01-09T12:37:27.646Z,76.0
2023-01-09T12:38:27.643Z,76.4
2023-01-09T12:39:27.668Z,76.5
2023-01-09T12:40:27.673Z,76.5
2023-01-09T12:41:27.686Z,76.6
2023-01-09T12:42:27.668Z,76.6
2023-01-09T12:43:27.668Z,76.8
2023-01-09T12:44:36.632Z,76.8
2023-01-09T12:45:27.792Z,76.7
2023-01-09T12:46:27.701Z,76.7
2023-01-09T12:47:27.696Z,76.6
2023-01-09T12:48:27.698Z,76.9
2023-01-09T12:49:27.754Z,77.1
2023-01-09T12:50:27.740Z,77.4
2023-01-09T12:51:27.738Z,77.6
2023-01-09T12:52:28.060Z,77.3
2023-01-09T12:53:27.738Z,77.2
2023-01-09T12:54:27.746Z,77.2
2023-01-09T12:55:27.781Z,76.9
2023-01-09T12:56:27.767Z,76.9
2023-01-09T12:57:27.807Z,76.8
2023-01-09T12:58:27.778Z,76.9
2023-01-09T12:59:27.841Z,76.9
2023-01-09T13:00:27.798Z,76.8
2023-01-09T13:01:28.076Z,76.9
2023-01-09T13:02:28.185Z,76.9
2023-01-09T13:03:27.809Z,77.0
2023-01-09T13:04:27.835Z,77.1
2023-01-09T13:05:27.847Z,77.2
2023-01-09T13:06:27.847Z,77.3
2023-01-09T13:07:27.851Z,77.3
2023-01-09T13:08:27.861Z,77.3
2023-01-09T13:09:27.883Z,77.4
2023-01-09T13:10:27.889Z,77.3
2023-01-09T13:11:27.882Z,77.3
2023-01-09T13:12:27.910Z,77.4
2023-01-09T13:13:27.900Z,77.8
2023-01-09T13:14:27.896Z,77.8
2023-01-09T13:15:27.920Z,77.6
2023-01-09T13:16:28.369Z,77.4
2023-01-09T13:17:27.968Z,77.5
2023-01-09T13:18:27.991Z,77.5
2023-01-09T13:19:28.035Z,77.6
2023-01-09T13:20:27.965Z,77.8
2023-01-09T13:21:28.034Z,77.8
2023-01-09T13:22:27.987Z,77.7
2023-01-09T13:23:28.003Z,77.7
2023-01-09T13:24:28.011Z,77.5
2023-01-09T13:25:28.016Z,77.5
2023-01-09T13:26:28.001Z,77.5
2023-01-09T13:27:28.016Z,77.5
2023-01-09T13:28:28.044Z,77.7
2023-01-09T13:29:28.026Z,77.7
2023-01-09T13:30:28.043Z,77.6
2023-01-09T13:31:28.192Z,77.6
2023-01-09T13:32:28.071Z,77.6
2023-01-09T13:33:28.070Z,77.8
2023-01-09T13:34:28.089Z,77.7
2023-01-09T13:35:28.106Z,77.5